Robert G. Brownlee — WCY4665 — position and weather

sailwx.info

Track history (hours):
 
Tides and Currents Weather Stations Pressure Air Temp Water Temp Dewpoint Dewpoint Depression Visibility Wind Speed Wind Dir Waves Ship Positions

Robert G. Brownlee

Owner: MARINE SCIENCE INSTITUTE, REDWOOD CITY, CA. More information available from US FCC via Universal Licensing System and Coast Guard Vessel Documentation Center.

Last reported at 2017-Nov-19 02:43 UTC. Time now 2017-Nov-19 17:23 UTC.
Position N 37°30' W 122°13'.

MMSI: 366751060.

Date/timePositionNaut miles runAvg speedWind from/ knotsBaromVisibWave heightAir tempDewpointWater temp
2017-Nov-19 02:43N 37°30' W 122°13'0 1.6
2017-Nov-19 02:30N 37°31' W 122°13'5 6.5
2017-Nov-19 01:45N 37°35' W 122°15'2 8.0
2017-Nov-19 01:30N 37°37' W 122°17'4 8.2
2017-Nov-19 01:01N 37°40' W 122°19'4 7.9
2017-Nov-19 00:30N 37°44' W 122°21'4 7.4
2017-Nov-19 00:00N 37°47' W 122°23'1 0.9
2017-Nov-18 22:52N 37°48' W 122°24'3 6.9
2017-Nov-18 22:27N 37°51' W 122°23'1 1.6
2017-Nov-18 21:54N 37°52' W 122°23'2 4.7
2017-Nov-18 21:30N 37°50' W 122°23'2 4.1
2017-Nov-18 21:00N 37°48' W 122°24'0 0.0
2017-Nov-18 20:30N 37°48' W 122°24'0 0.0
2017-Nov-18 20:00N 37°48' W 122°24'3 6.0
2017-Nov-18 19:30N 37°51' W 122°22'1 2.1
2017-Nov-18 19:00N 37°52' W 122°22'1 2.8
2017-Nov-18 18:31N 37°51' W 122°23'3 5.3
2017-Nov-18 18:01N 37°48' W 122°24'0 0.0
2017-Nov-18 01:23N 37°48' W 122°24'0 0.0
2017-Nov-18 01:00N 37°48' W 122°24'0 0.0
2017-Nov-18 00:30N 37°48' W 122°24'2 4.0
2017-Nov-18 00:01N 37°50' W 122°24'2 3.6
2017-Nov-17 23:27N 37°52' W 122°22'0 0.8
2017-Nov-17 23:00N 37°52' W 122°23'1 1.6
2017-Nov-17 22:26N 37°52' W 122°24'0 0.3
2017-Nov-17 21:53N 37°52' W 122°24'1 1.8
2017-Nov-17 21:30N 37°53' W 122°24'4 8.5
2017-Nov-17 21:00N 37°49' W 122°24'1 1.2
2017-Nov-17 20:30N 37°48' W 122°24'0 0.0
2017-Nov-17 20:00N 37°48' W 122°24'1 2.9
2017-Nov-17 19:30N 37°47' W 122°23'0 0.0
2017-Nov-17 19:00N 37°47' W 122°23'0 0.0
2017-Nov-17 18:30N 37°47' W 122°23'0 0.0
2017-Nov-17 18:00N 37°47' W 122°23'1 0.1
2017-Nov-17 00:52N 37°48' W 122°24'0 0.0
2017-Nov-17 00:31N 37°48' W 122°24'3 6.4
2017-Nov-17 00:01N 37°51' W 122°24'1 2.4
2017-Nov-16 23:30N 37°53' W 122°24'2 3.1
2017-Nov-16 23:00N 37°52' W 122°22'0 0.4
2017-Nov-16 22:30N 37°52' W 122°22'1 2.4
2017-Nov-16 22:00N 37°53' W 122°23'1 1.6
2017-Nov-16 21:30N 37°52' W 122°23'4 7.8
2017-Nov-16 21:00N 37°48' W 122°24'0 0.1
2017-Nov-16 20:30N 37°48' W 122°24'0 0.0
2017-Nov-16 20:00N 37°48' W 122°24'1 2.8
2017-Nov-16 19:30N 37°49' W 122°24'3 6.6
2017-Nov-16 19:00N 37°52' W 122°21'0 0.2
2017-Nov-16 18:30N 37°52' W 122°21'1 1.2
2017-Nov-16 18:00N 37°52' W 122°22'0 0.5
2017-Nov-16 17:30N 37°52' W 122°22'1 1.4
2017-Nov-16 17:00N 37°53' W 122°21'2 4.0
2017-Nov-16 16:30N 37°51' W 122°22'3 5.7
2017-Nov-16 16:00N 37°48' W 122°24'0 0.0
2017-Nov-16 01:36N 37°48' W 122°24'0 0.0
2017-Nov-16 01:30N 37°48' W 122°24'0 0.0
2017-Nov-16 01:00N 37°48' W 122°24'0 0.0
2017-Nov-16 00:31N 37°48' W 122°24'3 6.9
2017-Nov-16 00:00N 37°52' W 122°23'1 2.3
2017-Nov-15 23:30N 37°53' W 122°23'0 0.4
2017-Nov-15 23:00N 37°53' W 122°23'0 0.5
2017-Nov-15 22:30N 37°53' W 122°24'0 0.7
2017-Nov-15 22:00N 37°53' W 122°23'1 1.2
2017-Nov-15 21:30N 37°53' W 122°23'4 7.8
2017-Nov-15 21:00N 37°49' W 122°24'1 2.3
2017-Nov-15 20:30N 37°48' W 122°24'0 0.0
2017-Nov-15 20:00N 37°48' W 122°24'1 2.8
2017-Nov-15 19:30N 37°50' W 122°24'3 6.2
2017-Nov-15 19:00N 37°53' W 122°23'0 0.6
2017-Nov-15 18:30N 37°53' W 122°23'0 0.1
2017-Nov-15 18:00N 37°53' W 122°22'0 0.8
2017-Nov-15 17:30N 37°53' W 122°23'0 0.4
2017-Nov-15 16:49N 37°53' W 122°23'1 4.3
2017-Nov-15 16:30N 37°51' W 122°23'3 0.2
2017-Nov-15 01:14N 37°48' W 122°24'0 0.0
2017-Nov-15 01:00N 37°48' W 122°24'1 2.1
2017-Nov-15 00:30N 37°49' W 122°24'3 6.6
2017-Nov-15 00:01N 37°52' W 122°23'1 1.0
2017-Nov-14 23:30N 37°53' W 122°23'0 0.4
2017-Nov-14 23:01N 37°53' W 122°23'0 0.6
2017-Nov-14 22:31N 37°52' W 122°23'0 0.2
2017-Nov-14 22:00N 37°52' W 122°23'2 4.0
2017-Nov-14 21:30N 37°51' W 122°24'2 4.9
2017-Nov-14 21:00N 37°48' W 122°24'0 0.0
2017-Nov-14 20:30N 37°48' W 122°24'0 0.0
2017-Nov-14 20:00N 37°48' W 122°24'2 3.4
2017-Nov-14 19:30N 37°50' W 122°24'2 4.6
2017-Nov-14 19:00N 37°52' W 122°23'0 0.5
2017-Nov-14 18:27N 37°52' W 122°22'0 0.4
2017-Nov-14 17:52N 37°52' W 122°22'0 0.4
2017-Nov-14 17:30N 37°52' W 122°22'0 0.6
2017-Nov-14 17:00N 37°52' W 122°23'2 4.4
2017-Nov-14 16:31N 37°50' W 122°23'2 3.8
2017-Nov-14 16:01N 37°48' W 122°24'0 0.0
2017-Nov-14 15:30N 37°48' W 122°24'0 0.0
2017-Nov-14 15:01N 37°48' W 122°24'0 0.0
2017-Nov-13 22:30N 37°48' W 122°24'0 0.0
2017-Nov-13 22:00N 37°48' W 122°24'  
2017-Nov-10 23:24N 37°53' W 122°23'1 2.1
2017-Nov-10 23:00N 37°53' W 122°24'1 1.1
2017-Nov-10 22:30N 37°53' W 122°23'1 0.9
2017-Nov-10 21:42N 37°53' W 122°22'1 4.3
2017-Nov-10 21:30N 37°52' W 122°22'4 8.1
2017-Nov-10 21:00N 37°48' W 122°24'0 0.0
2017-Nov-10 01:30N 37°48' W 122°24'0 0.0
2017-Nov-10 01:00N 37°48' W 122°24'1 2.2
2017-Nov-10 00:30N 37°49' W 122°24'4 6.4
2017-Nov-09 23:57N 37°53' W 122°22'1 1.8
2017-Nov-09 23:26N 37°53' W 122°23'0 0.7
2017-Nov-09 23:00N 37°53' W 122°23'1 1.3
2017-Nov-09 22:26N 37°53' W 122°22'0 1.0
2017-Nov-09 21:56N 37°53' W 122°22'2 3.8
2017-Nov-09 21:30N 37°51' W 122°23'3 6.4
2017-Nov-09 21:00N 37°48' W 122°24'0 0.0
2017-Nov-09 19:58N 37°48' W 122°24'4 7.5
2017-Nov-09 19:30N 37°52' W 122°23'1 2.5
2017-Nov-09 19:01N 37°53' W 122°22'0 0.5
2017-Nov-09 18:30N 37°52' W 122°22'0 0.8
2017-Nov-09 18:00N 37°52' W 122°23'0 0.9
2017-Nov-09 17:30N 37°53' W 122°22'1 1.2
2017-Nov-09 17:00N 37°52' W 122°21'3 6.1
2017-Nov-09 16:30N 37°50' W 122°24'  
Track history (hours):
 
Tides and Currents Weather Stations Pressure Air Temp Water Temp Dewpoint Dewpoint Depression Visibility Wind Speed Wind Dir Waves Ship Positions

Robert G. Brownlee

Owner: MARINE SCIENCE INSTITUTE, REDWOOD CITY, CA. More information available from US FCC via Universal Licensing System and Coast Guard Vessel Documentation Center.

Last reported at 2017-Nov-19 02:43 UTC. Time now 2017-Nov-19 17:23 UTC.
Position N 37°30' W 122°13'.

MMSI: 366751060.

Date/timePositionNaut miles runAvg speedWind from/ knotsBaromVisibWave heightAir tempDewpointWater temp
2017-Nov-19 02:43N 37°30' W 122°13'0 1.6
2017-Nov-19 02:30N 37°31' W 122°13'5 6.5
2017-Nov-19 01:45N 37°35' W 122°15'2 8.0
2017-Nov-19 01:30N 37°37' W 122°17'4 8.2
2017-Nov-19 01:01N 37°40' W 122°19'4 7.9
2017-Nov-19 00:30N 37°44' W 122°21'4 7.4
2017-Nov-19 00:00N 37°47' W 122°23'1 0.9
2017-Nov-18 22:52N 37°48' W 122°24'3 6.9
2017-Nov-18 22:27N 37°51' W 122°23'1 1.6
2017-Nov-18 21:54N 37°52' W 122°23'2 4.7
2017-Nov-18 21:30N 37°50' W 122°23'2 4.1
2017-Nov-18 21:00N 37°48' W 122°24'0 0.0
2017-Nov-18 20:30N 37°48' W 122°24'0 0.0
2017-Nov-18 20:00N 37°48' W 122°24'3 6.0
2017-Nov-18 19:30N 37°51' W 122°22'1 2.1
2017-Nov-18 19:00N 37°52' W 122°22'1 2.8
2017-Nov-18 18:31N 37°51' W 122°23'3 5.3
2017-Nov-18 18:01N 37°48' W 122°24'0 0.0
2017-Nov-18 01:23N 37°48' W 122°24'0 0.0
2017-Nov-18 01:00N 37°48' W 122°24'0 0.0
2017-Nov-18 00:30N 37°48' W 122°24'2 4.0
2017-Nov-18 00:01N 37°50' W 122°24'2 3.6
2017-Nov-17 23:27N 37°52' W 122°22'0 0.8
2017-Nov-17 23:00N 37°52' W 122°23'1 1.6
2017-Nov-17 22:26N 37°52' W 122°24'0 0.3
2017-Nov-17 21:53N 37°52' W 122°24'1 1.8
2017-Nov-17 21:30N 37°53' W 122°24'4 8.5
2017-Nov-17 21:00N 37°49' W 122°24'1 1.2
2017-Nov-17 20:30N 37°48' W 122°24'0 0.0
2017-Nov-17 20:00N 37°48' W 122°24'1 2.9
2017-Nov-17 19:30N 37°47' W 122°23'0 0.0
2017-Nov-17 19:00N 37°47' W 122°23'0 0.0
2017-Nov-17 18:30N 37°47' W 122°23'0 0.0
2017-Nov-17 18:00N 37°47' W 122°23'1 0.1
2017-Nov-17 00:52N 37°48' W 122°24'0 0.0
2017-Nov-17 00:31N 37°48' W 122°24'3 6.4
2017-Nov-17 00:01N 37°51' W 122°24'1 2.4
2017-Nov-16 23:30N 37°53' W 122°24'2 3.1
2017-Nov-16 23:00N 37°52' W 122°22'0 0.4
2017-Nov-16 22:30N 37°52' W 122°22'1 2.4
2017-Nov-16 22:00N 37°53' W 122°23'1 1.6
2017-Nov-16 21:30N 37°52' W 122°23'4 7.8
2017-Nov-16 21:00N 37°48' W 122°24'0 0.1
2017-Nov-16 20:30N 37°48' W 122°24'0 0.0
2017-Nov-16 20:00N 37°48' W 122°24'1 2.8
2017-Nov-16 19:30N 37°49' W 122°24'3 6.6
2017-Nov-16 19:00N 37°52' W 122°21'0 0.2
2017-Nov-16 18:30N 37°52' W 122°21'1 1.2
2017-Nov-16 18:00N 37°52' W 122°22'0 0.5
2017-Nov-16 17:30N 37°52' W 122°22'1 1.4
2017-Nov-16 17:00N 37°53' W 122°21'2 4.0
2017-Nov-16 16:30N 37°51' W 122°22'3 5.7
2017-Nov-16 16:00N 37°48' W 122°24'0 0.0
2017-Nov-16 01:36N 37°48' W 122°24'0 0.0
2017-Nov-16 01:30N 37°48' W 122°24'0 0.0
2017-Nov-16 01:00N 37°48' W 122°24'0 0.0
2017-Nov-16 00:31N 37°48' W 122°24'3 6.9
2017-Nov-16 00:00N 37°52' W 122°23'1 2.3
2017-Nov-15 23:30N 37°53' W 122°23'0 0.4
2017-Nov-15 23:00N 37°53' W 122°23'0 0.5
2017-Nov-15 22:30N 37°53' W 122°24'0 0.7
2017-Nov-15 22:00N 37°53' W 122°23'1 1.2
2017-Nov-15 21:30N 37°53' W 122°23'4 7.8
2017-Nov-15 21:00N 37°49' W 122°24'1 2.3
2017-Nov-15 20:30N 37°48' W 122°24'0 0.0
2017-Nov-15 20:00N 37°48' W 122°24'1 2.8
2017-Nov-15 19:30N 37°50' W 122°24'3 6.2
2017-Nov-15 19:00N 37°53' W 122°23'0 0.6
2017-Nov-15 18:30N 37°53' W 122°23'0 0.1
2017-Nov-15 18:00N 37°53' W 122°22'0 0.8
2017-Nov-15 17:30N 37°53' W 122°23'0 0.4
2017-Nov-15 16:49N 37°53' W 122°23'1 4.3
2017-Nov-15 16:30N 37°51' W 122°23'3 0.2
2017-Nov-15 01:14N 37°48' W 122°24'0 0.0
2017-Nov-15 01:00N 37°48' W 122°24'1 2.1
2017-Nov-15 00:30N 37°49' W 122°24'3 6.6
2017-Nov-15 00:01N 37°52' W 122°23'1 1.0
2017-Nov-14 23:30N 37°53' W 122°23'0 0.4
2017-Nov-14 23:01N 37°53' W 122°23'0 0.6
2017-Nov-14 22:31N 37°52' W 122°23'0 0.2
2017-Nov-14 22:00N 37°52' W 122°23'2 4.0
2017-Nov-14 21:30N 37°51' W 122°24'2 4.9
2017-Nov-14 21:00N 37°48' W 122°24'0 0.0
2017-Nov-14 20:30N 37°48' W 122°24'0 0.0
2017-Nov-14 20:00N 37°48' W 122°24'2 3.4
2017-Nov-14 19:30N 37°50' W 122°24'2 4.6
2017-Nov-14 19:00N 37°52' W 122°23'0 0.5
2017-Nov-14 18:27N 37°52' W 122°22'0 0.4
2017-Nov-14 17:52N 37°52' W 122°22'0 0.4
2017-Nov-14 17:30N 37°52' W 122°22'0 0.6
2017-Nov-14 17:00N 37°52' W 122°23'2 4.4
2017-Nov-14 16:31N 37°50' W 122°23'2 3.8
2017-Nov-14 16:01N 37°48' W 122°24'0 0.0
2017-Nov-14 15:30N 37°48' W 122°24'0 0.0
2017-Nov-14 15:01N 37°48' W 122°24'0 0.0
2017-Nov-13 22:30N 37°48' W 122°24'0 0.0
2017-Nov-13 22:00N 37°48' W 122°24'  
2017-Nov-10 23:24N 37°53' W 122°23'1 2.1
2017-Nov-10 23:00N 37°53' W 122°24'1 1.1
2017-Nov-10 22:30N 37°53' W 122°23'1 0.9
2017-Nov-10 21:42N 37°53' W 122°22'1 4.3
2017-Nov-10 21:30N 37°52' W 122°22'4 8.1
2017-Nov-10 21:00N 37°48' W 122°24'0 0.0
2017-Nov-10 01:30N 37°48' W 122°24'0 0.0
2017-Nov-10 01:00N 37°48' W 122°24'1 2.2
2017-Nov-10 00:30N 37°49' W 122°24'4 6.4
2017-Nov-09 23:57N 37°53' W 122°22'1 1.8
2017-Nov-09 23:26N 37°53' W 122°23'0 0.7
2017-Nov-09 23:00N 37°53' W 122°23'1 1.3
2017-Nov-09 22:26N 37°53' W 122°22'0 1.0
2017-Nov-09 21:56N 37°53' W 122°22'2 3.8
2017-Nov-09 21:30N 37°51' W 122°23'3 6.4
2017-Nov-09 21:00N 37°48' W 122°24'0 0.0
2017-Nov-09 19:58N 37°48' W 122°24'4 7.5
2017-Nov-09 19:30N 37°52' W 122°23'1 2.5
2017-Nov-09 19:01N 37°53' W 122°22'0 0.5
2017-Nov-09 18:30N 37°52' W 122°22'0 0.8
2017-Nov-09 18:00N 37°52' W 122°23'0 0.9
2017-Nov-09 17:30N 37°53' W 122°22'1 1.2
2017-Nov-09 17:00N 37°52' W 122°21'3 6.1
2017-Nov-09 16:30N 37°50' W 122°24'  

Dump ship's entire track history